Time;durP1;ratioP1;P1;durP2;ratioP2;P2;SDS_P1;SDS_P2;PMS_P1;PMS_P2;Temp;Humidity;BMP_temperature;BMP_pressure;BME280_temperature;BME280_humidity;BME280_pressure;Samples;Min_cycle;Max_cycle;Signal;HPM_P1;HPM_P2
2021/01/15 00:00:57;;;;;;;20.43;9.47;;;;;;;;;;5091848;28;20078;-58
2021/01/15 00:03:22;;;;;;;19.50;9.43;;;;;;;;;;5092521;28;20093;-58
2021/01/15 00:05:47;;;;;;;24.00;9.37;;;;;;;;;;5090361;28;20046;-57
2021/01/15 00:08:13;;;;;;;16.57;8.63;;;;;;;;;;5092588;28;20024;-58
2021/01/15 00:10:38;;;;;;;17.67;8.70;;;;;;;;;;5092524;28;20063;-58
2021/01/15 00:13:03;;;;;;;19.40;8.97;;;;;;;;;;5090648;28;20426;-58
2021/01/15 00:15:29;;;;;;;18.67;8.00;;;;;;;;;;5092329;28;20107;-57
2021/01/15 00:17:54;;;;;;;17.87;7.20;;;;;;;;;;5091665;28;20063;-57
2021/01/15 00:20:19;;;;;;;17.57;8.80;;;;;;;;;;5074190;28;20031;-58
2021/01/15 00:22:45;;;;;;;22.27;11.63;;;;;;;;;;5091799;28;20032;-58
2021/01/15 00:25:10;;;;;;;22.73;9.17;;;;;;;;;;5092254;28;20031;-58
2021/01/15 00:27:39;;;;;;;20.20;8.80;;;;;;;;;;5092308;28;20036;-58
2021/01/15 00:30:05;;;;;;;16.17;7.95;;;;;;;;;;5091405;28;20111;-57
2021/01/15 00:32:30;;;;;;;18.33;8.80;;;;;;;;;;5092402;28;20387;-58
2021/01/15 00:34:56;;;;;;;15.33;7.90;;;;;;;;;;5077450;28;20024;-57
2021/01/15 00:37:21;;;;;;;19.43;9.30;;;;;;;;;;5071716;28;20473;-58
2021/01/15 00:39:46;;;;;;;18.50;8.90;;;;;;;;;;5071137;28;20132;-56
2021/01/15 00:42:12;;;;;;;17.60;8.30;;;;;;;;;;5071978;28;20064;-58
2021/01/15 00:44:37;;;;;;;21.63;9.10;;;;;;;;;;5071991;28;20028;-58
2021/01/15 00:47:02;;;;;;;15.63;8.27;;;;;;;;;;5070018;28;20434;-57
2021/01/15 00:49:28;;;;;;;20.80;9.50;;;;;;;;;;5071977;28;20036;-57
2021/01/15 00:51:53;;;;;;;23.33;8.93;;;;;;;;;;5071291;28;20036;-57
2021/01/15 00:54:24;;;;;;;20.67;8.73;;;;;;;;;;5070412;28;20486;-58
2021/01/15 00:56:50;;;;;;;20.17;9.55;;;;;;;;;;5069813;28;20024;-57
2021/01/15 00:59:22;;;;;;;18.20;7.85;;;;;;;;;;5070730;28;20051;-58
2021/01/15 01:02:03;;;;;;;16.80;8.43;;;;;;;;;;5069836;28;20415;-58
2021/01/15 01:04:31;;;;;;;25.52;7.72;;;;;;;;;;5075266;28;20431;-58
2021/01/15 01:06:57;;;;;;;17.37;8.53;;;;;;;;;;5074489;28;20064;-58
2021/01/15 01:09:23;;;;;;;18.45;9.68;;;;;;;;;;5075362;28;20029;-56
2021/01/15 01:11:48;;;;;;;18.23;8.57;;;;;;;;;;5074883;28;20062;-58
2021/01/15 01:14:13;;;;;;;15.90;8.67;;;;;;;;;;5075702;28;20039;-58
2021/01/15 01:16:39;;;;;;;21.10;9.07;;;;;;;;;;5075465;28;20380;-56
2021/01/15 01:19:04;;;;;;;17.73;8.17;;;;;;;;;;5075163;28;20380;-58
2021/01/15 01:21:32;;;;;;;17.10;7.43;;;;;;;;;;5075281;28;20110;-58
2021/01/15 01:23:58;;;;;;;16.88;9.00;;;;;;;;;;5072813;28;20127;-58
2021/01/15 01:26:23;;;;;;;21.43;8.53;;;;;;;;;;5076321;28;20108;-58
2021/01/15 01:28:48;;;;;;;16.37;7.90;;;;;;;;;;5074832;28;20043;-58
2021/01/15 01:31:15;;;;;;;16.70;8.27;;;;;;;;;;5090419;28;20127;-58
2021/01/15 01:33:40;;;;;;;15.85;8.27;;;;;;;;;;5074861;28;20024;-58
2021/01/15 01:36:06;;;;;;;16.60;7.93;;;;;;;;;;5073249;28;20039;-56
2021/01/15 01:38:32;;;;;;;15.90;7.90;;;;;;;;;;5075038;28;20272;-58
2021/01/15 01:40:57;;;;;;;19.27;8.57;;;;;;;;;;5073442;28;20033;-59
2021/01/15 01:43:23;;;;;;;17.33;8.00;;;;;;;;;;5073750;28;20032;-59
2021/01/15 01:45:48;;;;;;;13.83;7.27;;;;;;;;;;5075115;28;20093;-58
2021/01/15 01:48:14;;;;;;;15.30;7.03;;;;;;;;;;5073206;28;20024;-57
2021/01/15 01:50:41;;;;;;;15.32;7.00;;;;;;;;;;5073215;28;20441;-56
2021/01/15 01:53:07;;;;;;;18.58;8.15;;;;;;;;;;5073947;28;20028;-58
2021/01/15 01:55:33;;;;;;;11.75;6.90;;;;;;;;;;5074397;28;20039;-57
2021/01/15 01:57:59;;;;;;;20.40;7.15;;;;;;;;;;5073740;28;20028;-58
2021/01/15 02:00:24;;;;;;;14.93;7.63;;;;;;;;;;5074497;28;20048;-58
2021/01/15 02:02:49;;;;;;;14.27;7.03;;;;;;;;;;5074508;28;20056;-58
2021/01/15 02:05:15;;;;;;;14.90;7.07;;;;;;;;;;5073802;28;20029;-58
2021/01/15 02:07:41;;;;;;;12.27;6.97;;;;;;;;;;5073261;28;20075;-56
2021/01/15 02:10:12;;;;;;;13.65;7.85;;;;;;;;;;5073522;28;20387;-58
2021/01/15 02:12:40;;;;;;;13.35;7.50;;;;;;;;;;5085295;28;20032;-57
2021/01/15 02:15:12;;;;;;;17.05;7.40;;;;;;;;;;5093408;28;20024;-58
2021/01/15 02:17:49;;;;;;;15.93;7.85;;;;;;;;;;5094734;28;20422;-58
2021/01/15 02:20:24;;;;;;;16.50;7.07;;;;;;;;;;5093435;28;20070;-57
2021/01/15 02:22:53;;;;;;;14.02;6.80;;;;;;;;;;5094098;28;20093;-58
2021/01/15 02:25:33;;;;;;;19.10;8.02;;;;;;;;;;5093730;28;20028;-58
2021/01/15 02:28:20;;;;;;;13.02;6.80;;;;;;;;;;5093454;28;20039;-57
2021/01/15 02:30:55;;;;;;;12.52;7.07;;;;;;;;;;5094447;28;20040;-57
2021/01/15 02:33:39;;;;;;;11.57;6.80;;;;;;;;;;5094285;28;20117;-58
2021/01/15 02:36:23;;;;;;;11.88;6.88;;;;;;;;;;5093754;28;20036;-58
2021/01/15 02:38:55;;;;;;;14.27;7.68;;;;;;;;;;5094679;28;20063;-58
2021/01/15 02:41:22;;;;;;;13.05;7.55;;;;;;;;;;5094107;28;20033;-58
2021/01/15 02:43:47;;;;;;;;;;;;;;;;;;5094588;28;20106;-58
2021/01/15 02:46:14;;;;;;;17.50;8.33;;;;;;;;;;5092097;28;20000;-58
2021/01/15 02:48:41;;;;;;;14.90;7.70;;;;;;;;;;5093873;28;20024;-58
2021/01/15 02:51:06;;;;;;;14.95;7.97;;;;;;;;;;5092997;28;20039;-57
2021/01/15 02:53:33;;;;;;;19.47;8.10;;;;;;;;;;5093892;28;20032;-59
2021/01/15 02:55:58;;;;;;;17.05;6.97;;;;;;;;;;5093145;28;20024;-55
2021/01/15 02:58:23;;;;;;;14.40;6.90;;;;;;;;;;5093819;28;20463;-58
2021/01/15 03:00:49;;;;;;;17.40;7.80;;;;;;;;;;5092394;28;20036;-58
2021/01/15 03:03:20;;;;;;;17.27;7.03;;;;;;;;;;5084321;28;20557;-58
2021/01/15 03:05:48;;;;;;;13.40;6.70;;;;;;;;;;5072784;28;20513;-58
2021/01/15 03:08:15;;;;;;;16.15;7.85;;;;;;;;;;5072397;28;20108;-58
2021/01/15 03:10:41;;;;;;;14.90;7.07;;;;;;;;;;5072956;28;20075;-58
2021/01/15 03:13:06;;;;;;;16.17;7.47;;;;;;;;;;5072583;28;20033;-58
2021/01/15 03:15:34;;;;;;;14.80;7.37;;;;;;;;;;5071866;28;20037;-57
2021/01/15 03:18:00;;;;;;;16.17;8.50;;;;;;;;;;5072435;28;20476;-57
2021/01/15 03:20:25;;;;;;;14.83;7.03;;;;;;;;;;5072889;28;20028;-58
2021/01/15 03:22:51;;;;;;;15.37;7.23;;;;;;;;;;5072707;28;20036;-59
2021/01/15 03:25:17;;;;;;;15.95;7.28;;;;;;;;;;5071489;28;20032;-59
2021/01/15 03:27:52;;;;;;;11.75;6.88;;;;;;;;;;5072864;28;20052;-58
2021/01/15 03:30:18;;;;;;;14.70;7.45;;;;;;;;;;5071944;28;20111;-57
2021/01/15 03:32:45;;;;;;;13.93;7.43;;;;;;;;;;5072957;28;20028;-58
2021/01/15 03:35:22;;;;;;;15.35;7.13;;;;;;;;;;5071967;28;20047;-57
2021/01/15 03:37:50;;;;;;;15.60;7.90;;;;;;;;;;5073059;28;20043;-58
2021/01/15 03:40:16;;;;;;;14.55;7.28;;;;;;;;;;5072052;28;20126;-58
2021/01/15 03:42:41;;;;;;;13.87;7.40;;;;;;;;;;5072531;28;20045;-57
2021/01/15 03:45:07;;;;;;;14.23;7.63;;;;;;;;;;5070703;28;20116;-57
2021/01/15 03:47:32;;;;;;;14.50;7.35;;;;;;;;;;5072281;28;20108;-58
2021/01/15 03:49:58;;;;;;;15.90;8.10;;;;;;;;;;5072665;28;20526;-58
2021/01/15 03:52:23;;;;;;;16.88;8.38;;;;;;;;;;5071976;28;20028;-58
2021/01/15 03:54:48;;;;;;;18.00;8.43;;;;;;;;;;5072908;28;20033;-59
2021/01/15 03:57:14;;;;;;;15.30;7.80;;;;;;;;;;5073338;28;20396;-58
2021/01/15 03:59:39;;;;;;;13.57;7.47;;;;;;;;;;5078710;28;20028;-59
2021/01/15 04:02:04;;;;;;;12.43;6.47;;;;;;;;;;5086441;28;20193;-58
2021/01/15 04:04:31;;;;;;;16.83;7.60;;;;;;;;;;5077348;28;20043;-58
2021/01/15 04:06:57;;;;;;;20.08;8.27;;;;;;;;;;5071055;28;20028;-57
2021/01/15 04:09:22;;;;;;;14.73;7.20;;;;;;;;;;5072265;28;20099;-58
2021/01/15 04:11:48;;;;;;;15.30;7.67;;;;;;;;;;5073120;28;20162;-58
2021/01/15 04:14:13;;;;;;;17.47;7.87;;;;;;;;;;5072060;28;20058;-58
2021/01/15 04:16:38;;;;;;;16.50;6.80;;;;;;;;;;5071162;28;20086;-58
2021/01/15 04:19:04;;;;;;;16.17;8.30;;;;;;;;;;5071877;28;20024;-58
2021/01/15 04:21:29;;;;;;;18.23;7.97;;;;;;;;;;5072199;28;20029;-56
2021/01/15 04:23:55;;;;;;;15.63;8.23;;;;;;;;;;5072378;28;20427;-57
2021/01/15 04:26:21;;;;;;;18.05;8.18;;;;;;;;;;5073605;28;20485;-59
2021/01/15 04:28:46;;;;;;;15.80;7.50;;;;;;;;;;5072932;28;20032;-56
2021/01/15 04:31:16;;;;;;;19.63;7.73;;;;;;;;;;5071586;28;20418;-57
2021/01/15 04:33:41;;;;;;;15.75;8.27;;;;;;;;;;5070827;28;20082;-56
2021/01/15 04:36:06;;;;;;;17.83;7.90;;;;;;;;;;5070639;28;20464;-57
2021/01/15 04:38:32;;;;;;;10.73;5.47;;;;;;;;;;5075008;28;20543;-58
2021/01/15 04:40:57;;;;;;;15.33;8.17;;;;;;;;;;5075863;28;20044;-57
2021/01/15 04:43:27;;;;;;;14.07;8.00;;;;;;;;;;5075334;28;20081;-57
2021/01/15 04:45:53;;;;;;;14.38;7.57;;;;;;;;;;5075818;28;20392;-58
2021/01/15 04:48:20;;;;;;;15.45;7.10;;;;;;;;;;5073651;28;20036;-58
2021/01/15 04:50:46;;;;;;;16.52;8.27;;;;;;;;;;5075325;28;20025;-57
2021/01/15 04:53:12;;;;;;;16.85;7.82;;;;;;;;;;5075215;28;20055;-58
2021/01/15 04:55:41;;;;;;;16.38;7.70;;;;;;;;;;5075889;28;20169;-57
2021/01/15 04:58:07;;;;;;;15.38;7.20;;;;;;;;;;5075433;28;20483;-58
2021/01/15 05:00:32;;;;;;;;;;;;;;;;;;5075620;28;20031;-58
2021/01/15 05:02:59;;;;;;;17.27;7.93;;;;;;;;;;5075300;28;20010;-58
2021/01/15 05:05:25;;;;;;;18.88;8.65;;;;;;;;;;5074643;28;20082;-58
2021/01/15 05:08:06;;;;;;;15.88;7.65;;;;;;;;;;5075545;28;20078;-58
2021/01/15 05:10:35;;;;;;;19.58;8.00;;;;;;;;;;5074559;28;20090;-59
2021/01/15 05:13:04;;;;;;;18.95;8.77;;;;;;;;;;5075432;28;20028;-57
2021/01/15 05:15:30;;;;;;;14.52;7.15;;;;;;;;;;5073509;28;20058;-57
2021/01/15 05:17:57;;;;;;;16.63;8.30;;;;;;;;;;5074111;28;20024;-58
2021/01/15 05:20:23;;;;;;;18.33;7.75;;;;;;;;;;5073548;28;20064;-58
2021/01/15 05:22:48;;;;;;;14.05;7.25;;;;;;;;;;5073737;28;20043;-57
2021/01/15 05:25:13;;;;;;;15.37;7.70;;;;;;;;;;5074685;28;20029;-58
2021/01/15 05:27:42;;;;;;;15.43;7.80;;;;;;;;;;5074922;28;20025;-57
2021/01/15 05:30:11;;;;;;;17.35;7.45;;;;;;;;;;5073992;28;20025;-58
2021/01/15 05:32:36;;;;;;;18.08;8.07;;;;;;;;;;5074843;28;20111;-58
2021/01/15 05:35:02;;;;;;;20.40;8.23;;;;;;;;;;5074847;28;20104;-55
2021/01/15 05:37:27;;;;;;;17.77;7.72;;;;;;;;;;5074573;28;20511;-57
2021/01/15 05:39:53;;;;;;;17.47;7.30;;;;;;;;;;5074797;28;20024;-58
2021/01/15 05:42:18;;;;;;;14.53;7.57;;;;;;;;;;5074852;28;20132;-57
2021/01/15 05:44:43;;;;;;;16.47;6.53;;;;;;;;;;5077765;28;20036;-57
2021/01/15 05:47:09;;;;;;;14.87;7.77;;;;;;;;;;5074759;28;20052;-59
2021/01/15 05:49:34;;;;;;;16.93;8.67;;;;;;;;;;5073618;28;20024;-59
2021/01/15 05:52:07;;;;;;;20.87;7.33;;;;;;;;;;5074739;28;20040;-59
2021/01/15 05:54:32;;;;;;;18.30;8.40;;;;;;;;;;5073811;28;20598;-57
2021/01/15 05:57:01;;;;;;;19.35;7.72;;;;;;;;;;5074896;28;20029;-59
2021/01/15 05:59:27;;;;;;;19.40;8.57;;;;;;;;;;5074325;28;20151;-58
2021/01/15 06:01:55;;;;;;;21.02;8.50;;;;;;;;;;5074776;28;20036;-58
2021/01/15 06:04:37;;;;;;;15.80;7.18;;;;;;;;;;5074205;28;20032;-59
2021/01/15 06:07:08;;;;;;;17.90;8.50;;;;;;;;;;5074426;28;20032;-58
2021/01/15 06:09:34;;;;;;;21.02;8.65;;;;;;;;;;5073429;28;20888;-57
2021/01/15 06:12:03;;;;;;;17.83;8.18;;;;;;;;;;5056325;28;20060;-57
2021/01/15 06:14:28;;;;;;;23.15;9.23;;;;;;;;;;5073662;28;20036;-58
2021/01/15 06:17:01;;;;;;;17.83;8.73;;;;;;;;;;5074072;28;20467;-58
2021/01/15 06:19:41;;;;;;;14.85;8.02;;;;;;;;;;5072104;28;20371;-58
2021/01/15 06:22:06;;;;;;;14.45;7.55;;;;;;;;;;5074147;28;20135;-58
2021/01/15 06:24:32;;;;;;;21.00;8.63;;;;;;;;;;5073618;28;20040;-58
2021/01/15 06:27:08;;;;;;;19.65;9.23;;;;;;;;;;5074043;28;20029;-58
2021/01/15 06:29:41;;;;;;;19.60;8.57;;;;;;;;;;5072166;28;20032;-58
2021/01/15 06:32:08;;;;;;;17.75;9.18;;;;;;;;;;5074205;28;20059;-58
2021/01/15 06:34:44;;;;;;;20.95;9.75;;;;;;;;;;5073042;28;20475;-58
2021/01/15 06:37:10;;;;;;;20.10;9.40;;;;;;;;;;5072763;28;20036;-57
2021/01/15 06:39:35;;;;;;;16.70;8.93;;;;;;;;;;5073229;28;20037;-57
2021/01/15 06:42:03;;;;;;;18.47;9.27;;;;;;;;;;5073953;28;20476;-59
2021/01/15 06:44:29;;;;;;;17.88;8.93;;;;;;;;;;5071649;28;20040;-58
2021/01/15 06:46:54;;;;;;;17.88;9.10;;;;;;;;;;5072140;28;20032;-57
2021/01/15 06:49:28;;;;;;;22.52;9.82;;;;;;;;;;5072722;28;20056;-57
2021/01/15 06:51:54;;;;;;;18.52;9.65;;;;;;;;;;5072531;28;20036;-58
2021/01/15 06:54:35;;;;;;;19.63;10.05;;;;;;;;;;5072655;28;20102;-58
2021/01/15 06:57:10;;;;;;;17.98;8.68;;;;;;;;;;5073474;28;20055;-58
2021/01/15 06:59:36;;;;;;;17.08;8.77;;;;;;;;;;5073372;28;20029;-58
2021/01/15 07:02:11;;;;;;;18.48;10.40;;;;;;;;;;5072779;28;20492;-58
2021/01/15 07:04:57;;;;;;;21.38;9.80;;;;;;;;;;5072715;28;20032;-58
2021/01/15 07:07:25;;;;;;;16.70;8.98;;;;;;;;;;5072414;28;20063;-57
2021/01/15 07:09:50;;;;;;;18.58;9.40;;;;;;;;;;5073063;28;20016;-57
2021/01/15 07:12:17;;;;;;;21.17;9.90;;;;;;;;;;5073210;28;20036;-58
2021/01/15 07:15:01;;;;;;;23.08;10.35;;;;;;;;;;5072543;28;20037;-58
2021/01/15 07:17:27;;;;;;;17.55;9.05;;;;;;;;;;5071163;28;20426;-58
2021/01/15 07:20:00;;;;;;;22.03;10.07;;;;;;;;;;5072772;28;20095;-57
2021/01/15 07:22:30;;;;;;;17.50;9.07;;;;;;;;;;5072203;28;20028;-58
2021/01/15 07:24:57;;;;;;;16.90;8.68;;;;;;;;;;5073314;28;20039;-57
2021/01/15 07:27:22;;;;;;;;;;;;;;;;;;5072264;28;20028;-57
2021/01/15 07:29:48;;;;;;;20.27;9.07;;;;;;;;;;5076011;28;19954;-59
2021/01/15 07:32:19;;;;;;;20.67;9.52;;;;;;;;;;5071480;28;20472;-59
2021/01/15 07:34:46;;;;;;;16.75;8.55;;;;;;;;;;5080448;28;20107;-58
2021/01/15 07:37:28;;;;;;;20.92;9.88;;;;;;;;;;5081168;28;20034;-56
2021/01/15 07:40:02;;;;;;;18.05;9.13;;;;;;;;;;5082073;28;20028;-59
2021/01/15 07:42:37;;;;;;;20.92;8.80;;;;;;;;;;5089299;28;20027;-58
2021/01/15 07:45:03;;;;;;;23.75;8.88;;;;;;;;;;5092676;28;20036;-58
2021/01/15 07:47:28;;;;;;;19.42;9.95;;;;;;;;;;5092039;28;20494;-58
2021/01/15 07:49:54;;;;;;;19.07;9.77;;;;;;;;;;5092387;28;20032;-59
2021/01/15 07:52:19;;;;;;;23.27;9.33;;;;;;;;;;5092949;28;20028;-59
2021/01/15 07:54:44;;;;;;;19.80;9.60;;;;;;;;;;5091517;28;20111;-58
2021/01/15 07:57:11;;;;;;;19.77;8.73;;;;;;;;;;5092148;28;20107;-56
2021/01/15 07:59:36;;;;;;;18.23;9.63;;;;;;;;;;5090642;28;20035;-59
2021/01/15 08:02:02;;;;;;;21.00;10.00;;;;;;;;;;5090987;28;20064;-57
2021/01/15 08:04:27;;;;;;;20.98;9.68;;;;;;;;;;5090436;28;20035;-58
2021/01/15 08:06:54;;;;;;;21.97;9.00;;;;;;;;;;5088831;28;20471;-57
2021/01/15 08:09:20;;;;;;;22.17;9.50;;;;;;;;;;5083093;28;20357;-57
2021/01/15 08:11:55;;;;;;;21.77;9.23;;;;;;;;;;5060306;28;20513;-58
2021/01/15 08:14:21;;;;;;;19.20;8.48;;;;;;;;;;5081837;28;20111;-58
2021/01/15 08:16:47;;;;;;;21.63;9.20;;;;;;;;;;5080679;28;20159;-59
2021/01/15 08:19:16;;;;;;;29.35;10.55;;;;;;;;;;5081001;28;20107;-58
2021/01/15 08:21:43;;;;;;;16.95;8.75;;;;;;;;;;5079010;28;20043;-58
2021/01/15 08:24:09;;;;;;;22.95;9.05;;;;;;;;;;5079488;28;20115;-58
2021/01/15 08:26:39;;;;;;;19.85;8.38;;;;;;;;;;5079949;28;20100;-58
2021/01/15 08:29:04;;;;;;;20.30;9.90;;;;;;;;;;5079052;28;20486;-56
2021/01/15 08:31:29;;;;;;;16.83;8.73;;;;;;;;;;5081283;28;20024;-58
2021/01/15 08:34:07;;;;;;;23.20;9.73;;;;;;;;;;5081469;28;20028;-59
2021/01/15 08:36:32;;;;;;;;;;;;;;;;;;5084073;28;20024;-59
2021/01/15 08:38:57;;;;;;;20.87;9.83;;;;;;;;;;5081784;28;19908;-57
2021/01/15 08:41:26;;;;;;;23.50;10.77;;;;;;;;;;5079922;28;20107;-58
2021/01/15 08:43:51;;;;;;;20.17;10.88;;;;;;;;;;5080819;28;20306;-58
2021/01/15 08:46:17;;;;;;;18.00;8.30;;;;;;;;;;5079209;28;20040;-58
2021/01/15 08:48:43;;;;;;;17.77;9.75;;;;;;;;;;5079396;28;20728;-57
2021/01/15 08:51:09;;;;;;;21.35;9.68;;;;;;;;;;5079984;28;20476;-59
2021/01/15 08:53:43;;;;;;;19.08;9.45;;;;;;;;;;5079190;28;20050;-57
2021/01/15 08:56:13;;;;;;;19.23;9.55;;;;;;;;;;5079330;28;20483;-57
2021/01/15 08:58:45;;;;;;;23.08;10.50;;;;;;;;;;5079613;28;20025;-58
2021/01/15 09:01:22;;;;;;;19.50;9.43;;;;;;;;;;5081381;28;20024;-57
2021/01/15 09:03:51;;;;;;;22.83;11.27;;;;;;;;;;5076570;28;20113;-57
2021/01/15 09:06:17;;;;;;;19.88;9.15;;;;;;;;;;5079025;28;20032;-58
2021/01/15 09:08:45;;;;;;;18.95;9.05;;;;;;;;;;5080174;28;20056;-59
2021/01/15 09:11:11;;;;;;;22.08;9.82;;;;;;;;;;5079340;28;20032;-57
2021/01/15 09:13:38;;;;;;;20.30;10.35;;;;;;;;;;5082036;28;20443;-58
2021/01/15 09:16:04;;;;;;;17.77;9.65;;;;;;;;;;5080556;28;20036;-57
2021/01/15 09:18:29;;;;;;;22.27;9.33;;;;;;;;;;5079174;28;20025;-58
2021/01/15 09:20:54;;;;;;;20.70;10.20;;;;;;;;;;5081290;28;20028;-58
2021/01/15 09:23:20;;;;;;;21.90;10.00;;;;;;;;;;5080977;28;20040;-58
2021/01/15 09:25:45;;;;;;;20.53;9.27;;;;;;;;;;5081600;28;20034;-58
2021/01/15 09:28:10;;;;;;;12.67;6.77;;;;;;;;;;5084415;28;20142;-58
2021/01/15 09:30:36;;;;;;;17.57;8.20;;;;;;;;;;5084231;28;20029;-58
2021/01/15 09:33:03;;;;;;;17.63;9.50;;;;;;;;;;5083944;28;20028;-58
2021/01/15 09:35:28;;;;;;;20.85;9.45;;;;;;;;;;5092295;28;20028;-56
2021/01/15 09:37:54;;;;;;;17.53;9.43;;;;;;;;;;5095806;28;20111;-57
2021/01/15 09:40:19;;;;;;;16.77;9.60;;;;;;;;;;5095158;28;20028;-58
2021/01/15 09:42:48;;;;;;;19.93;9.77;;;;;;;;;;5094264;28;20063;-57
2021/01/15 09:45:13;;;;;;;16.92;8.98;;;;;;;;;;5094741;28;20028;-58
2021/01/15 09:47:42;;;;;;;20.27;10.07;;;;;;;;;;5094330;28;20035;-58
2021/01/15 09:50:08;;;;;;;20.52;10.05;;;;;;;;;;5095040;28;20024;-58
2021/01/15 09:52:33;;;;;;;22.70;10.50;;;;;;;;;;5094179;28;20035;-58
2021/01/15 09:54:58;;;;;;;22.00;10.57;;;;;;;;;;5093904;28;20468;-57
2021/01/15 09:57:24;;;;;;;18.37;9.63;;;;;;;;;;5093573;28;20030;-61
2021/01/15 09:59:49;;;;;;;23.60;9.87;;;;;;;;;;5092755;28;20077;-58
2021/01/15 10:02:14;;;;;;;21.90;9.90;;;;;;;;;;5094705;28;20052;-57
2021/01/15 10:04:40;;;;;;;19.23;10.00;;;;;;;;;;5093953;28;20467;-58
2021/01/15 10:07:05;;;;;;;20.33;10.67;;;;;;;;;;5093325;28;20502;-58
2021/01/15 10:09:30;;;;;;;24.77;10.73;;;;;;;;;;5094016;28;20035;-57
2021/01/15 10:11:56;;;;;;;21.87;10.23;;;;;;;;;;5094401;28;20043;-58
2021/01/15 10:14:21;;;;;;;19.58;9.10;;;;;;;;;;5093385;28;20118;-58
2021/01/15 10:16:49;;;;;;;17.57;9.13;;;;;;;;;;5092521;28;20425;-58
2021/01/15 10:19:15;;;;;;;21.50;9.50;;;;;;;;;;5094064;28;20020;-59
2021/01/15 10:21:40;;;;;;;22.42;9.27;;;;;;;;;;5093860;28;20379;-57
2021/01/15 10:24:07;;;;;;;23.38;9.65;;;;;;;;;;5094282;28;20028;-57
2021/01/15 10:26:33;;;;;;;21.40;9.30;;;;;;;;;;5093267;28;20524;-57
2021/01/15 10:29:02;;;;;;;20.30;9.57;;;;;;;;;;5094457;28;20082;-58
2021/01/15 10:31:28;;;;;;;18.20;9.60;;;;;;;;;;5076240;28;20031;-58
2021/01/15 10:33:57;;;;;;;20.77;9.60;;;;;;;;;;5093284;28;20112;-57
2021/01/15 10:36:23;;;;;;;25.52;9.27;;;;;;;;;;5093041;28;20028;-55
2021/01/15 10:38:49;;;;;;;22.10;10.57;;;;;;;;;;5093569;28;20460;-58
2021/01/15 10:41:14;;;;;;;19.57;9.30;;;;;;;;;;5092800;28;20036;-58
2021/01/15 10:43:40;;;;;;;19.50;9.90;;;;;;;;;;5093329;28;20260;-58
2021/01/15 10:46:05;;;;;;;22.20;10.27;;;;;;;;;;5093093;28;20065;-57
2021/01/15 10:48:30;;;;;;;15.80;8.20;;;;;;;;;;5095469;28;20035;-59
2021/01/15 10:50:56;;;;;;;22.13;10.20;;;;;;;;;;5094883;28;20490;-58
2021/01/15 10:53:21;;;;;;;17.70;9.57;;;;;;;;;;5095569;28;20035;-59
2021/01/15 10:55:48;;;;;;;21.27;10.07;;;;;;;;;;5097875;28;20049;-60
2021/01/15 10:58:13;;;;;;;;;;;;;;;;;;5086655;28;20388;-58
2021/01/15 11:00:38;;;;;;;20.47;9.27;;;;;;;;;;5073679;28;19908;-58
2021/01/15 11:03:04;;;;;;;17.83;9.20;;;;;;;;;;5080882;28;20124;-58
2021/01/15 11:05:29;;;;;;;20.00;9.90;;;;;;;;;;5086758;28;20111;-58
2021/01/15 11:07:54;;;;;;;20.17;9.97;;;;;;;;;;5078963;28;20890;-57
2021/01/15 11:10:20;;;;;;;20.63;9.67;;;;;;;;;;5073662;28;20036;-58
2021/01/15 11:12:45;;;;;;;18.27;9.63;;;;;;;;;;5087953;28;20485;-59
2021/01/15 11:15:11;;;;;;;20.63;10.20;;;;;;;;;;5094016;28;20078;-58
2021/01/15 11:17:37;;;;;;;20.85;9.68;;;;;;;;;;5076249;28;20036;-59
2021/01/15 11:20:04;;;;;;;19.98;9.68;;;;;;;;;;5073424;28;20487;-59
2021/01/15 11:22:29;;;;;;;22.77;8.50;;;;;;;;;;5072898;28;20434;-58
2021/01/15 11:24:55;;;;;;;20.47;9.73;;;;;;;;;;5072606;28;20030;-57
2021/01/15 11:27:20;;;;;;;19.70;10.63;;;;;;;;;;5073301;28;20422;-57
2021/01/15 11:29:45;;;;;;;18.87;8.73;;;;;;;;;;5072320;28;20033;-58
2021/01/15 11:32:11;;;;;;;17.63;9.03;;;;;;;;;;5072226;28;20056;-58
2021/01/15 11:34:36;;;;;;;19.03;9.23;;;;;;;;;;5073215;28;20108;-57
2021/01/15 11:37:02;;;;;;;15.50;7.80;;;;;;;;;;5072460;28;20108;-58
2021/01/15 11:39:27;;;;;;;21.20;10.63;;;;;;;;;;5077058;28;20028;-59
2021/01/15 11:41:54;;;;;;;19.20;10.03;;;;;;;;;;5077104;28;20029;-57
2021/01/15 11:44:19;;;;;;;;;;;;;;;;;;5078486;28;20025;-59
2021/01/15 11:46:44;;;;;;;16.70;9.10;;;;;;;;;;5089451;28;20397;-57
2021/01/15 11:49:10;;;;;;;16.50;9.10;;;;;;;;;;5072886;28;20034;-57
2021/01/15 11:51:35;;;;;;;25.03;10.20;;;;;;;;;;5072475;28;20448;-57
2021/01/15 11:54:00;;;;;;;17.70;9.33;;;;;;;;;;5072170;28;20074;-57
2021/01/15 11:56:26;;;;;;;24.73;12.20;;;;;;;;;;5073502;28;20464;-58
2021/01/15 11:58:51;;;;;;;27.50;12.53;;;;;;;;;;5072356;28;20112;-58
2021/01/15 12:01:16;;;;;;;18.63;9.60;;;;;;;;;;5072503;28;20047;-56
2021/01/15 12:03:42;;;;;;;25.63;11.70;;;;;;;;;;5070969;28;20048;-57
2021/01/15 12:06:07;;;;;;;19.77;10.13;;;;;;;;;;5073451;28;20426;-58
2021/01/15 12:08:33;;;;;;;19.67;9.80;;;;;;;;;;5077791;28;20050;-57
2021/01/15 12:10:59;;;;;;;25.50;10.40;;;;;;;;;;5075684;28;20035;-58
2021/01/15 12:13:25;;;;;;;20.60;10.73;;;;;;;;;;5073268;28;20032;-58
2021/01/15 12:15:51;;;;;;;22.83;11.15;;;;;;;;;;5077774;28;20383;-58
2021/01/15 12:18:16;;;;;;;24.52;11.45;;;;;;;;;;5084937;28;20063;-58
2021/01/15 12:20:41;;;;;;;26.63;11.33;;;;;;;;;;5093649;28;20040;-57
2021/01/15 12:23:07;;;;;;;22.20;11.30;;;;;;;;;;5092921;28;20127;-58
2021/01/15 12:25:40;;;;;;;22.80;11.63;;;;;;;;;;5093111;28;20105;-57
2021/01/15 12:28:12;;;;;;;26.83;11.27;;;;;;;;;;5092596;28;20024;-58
2021/01/15 12:30:37;;;;;;;20.30;11.10;;;;;;;;;;5091666;28;20081;-58
2021/01/15 12:33:07;;;;;;;21.10;10.55;;;;;;;;;;5090392;28;20062;-58
2021/01/15 12:35:32;;;;;;;22.90;10.40;;;;;;;;;;5092638;28;20065;-57
2021/01/15 12:38:11;;;;;;;22.15;10.60;;;;;;;;;;5092273;28;20437;-58
2021/01/15 12:40:37;;;;;;;20.75;10.85;;;;;;;;;;5092597;28;20031;-59
2021/01/15 12:43:04;;;;;;;21.70;10.38;;;;;;;;;;5091652;28;20081;-57
2021/01/15 12:45:31;;;;;;;20.92;10.60;;;;;;;;;;5091945;28;20062;-57
2021/01/15 12:47:57;;;;;;;22.00;10.60;;;;;;;;;;5091356;28;20506;-57
2021/01/15 12:50:22;;;;;;;21.17;11.98;;;;;;;;;;5092455;28;20040;-57
2021/01/15 12:52:48;;;;;;;21.87;11.03;;;;;;;;;;5080779;28;20032;-59
2021/01/15 12:55:13;;;;;;;26.83;12.17;;;;;;;;;;5072193;28;20041;-58
2021/01/15 12:57:38;;;;;;;22.07;10.87;;;;;;;;;;5072461;28;20036;-57
2021/01/15 13:00:04;;;;;;;19.87;10.23;;;;;;;;;;5074560;28;20033;-57
2021/01/15 13:02:30;;;;;;;23.15;11.65;;;;;;;;;;5074075;28;20052;-58
2021/01/15 13:04:55;;;;;;;21.47;9.83;;;;;;;;;;5081148;28;20360;-58
2021/01/15 13:07:20;;;;;;;21.73;11.33;;;;;;;;;;5078576;28;20024;-57
2021/01/15 13:09:46;;;;;;;24.50;10.33;;;;;;;;;;5075989;28;20029;-58
2021/01/15 13:12:12;;;;;;;21.88;11.30;;;;;;;;;;5075811;28;20093;-58
2021/01/15 13:14:37;;;;;;;21.60;11.43;;;;;;;;;;5075026;28;20472;-56
2021/01/15 13:17:02;;;;;;;29.77;10.10;;;;;;;;;;5074869;28;20039;-57
2021/01/15 13:19:28;;;;;;;18.90;10.57;;;;;;;;;;5075903;28;20055;-58
2021/01/15 13:21:53;;;;;;;23.20;10.97;;;;;;;;;;5074886;28;20409;-60
2021/01/15 13:24:19;;;;;;;18.93;10.10;;;;;;;;;;5075226;28;20116;-59
2021/01/15 13:26:47;;;;;;;21.63;10.53;;;;;;;;;;5074073;28;20020;-58
2021/01/15 13:29:13;;;;;;;22.13;10.55;;;;;;;;;;5075163;28;20024;-58
2021/01/15 13:31:38;;;;;;;25.23;9.68;;;;;;;;;;5074712;28;20032;-57
2021/01/15 13:34:04;;;;;;;23.07;11.30;;;;;;;;;;5075655;28;20039;-58
2021/01/15 13:36:29;;;;;;;20.50;10.13;;;;;;;;;;5075382;28;20035;-58
2021/01/15 13:38:54;;;;;;;22.50;11.07;;;;;;;;;;5074524;28;20024;-59
2021/01/15 13:41:20;;;;;;;20.73;9.97;;;;;;;;;;5080736;28;20043;-59
2021/01/15 13:43:45;;;;;;;19.90;9.23;;;;;;;;;;5077600;28;20082;-60
2021/01/15 13:46:10;;;;;;;20.90;10.07;;;;;;;;;;5086004;28;20434;-58
2021/01/15 13:48:37;;;;;;;24.27;10.67;;;;;;;;;;5093052;28;20024;-57
2021/01/15 13:51:13;;;;;;;19.50;9.50;;;;;;;;;;5082418;28;20079;-58
2021/01/15 13:53:38;;;;;;;19.33;9.90;;;;;;;;;;5080318;28;20131;-57
2021/01/15 13:56:04;;;;;;;20.50;10.77;;;;;;;;;;5072244;28;20107;-58
2021/01/15 13:58:29;;;;;;;24.80;9.13;;;;;;;;;;5077623;28;20038;-58
2021/01/15 14:00:54;;;;;;;22.17;9.73;;;;;;;;;;5093548;28;20104;-58
2021/01/15 14:03:20;;;;;;;21.67;9.33;;;;;;;;;;5094937;28;20072;-58
2021/01/15 14:05:45;;;;;;;18.57;9.47;;;;;;;;;;5094823;28;20067;-58
2021/01/15 14:08:11;;;;;;;17.03;9.57;;;;;;;;;;5093988;28;20203;-58
2021/01/15 14:10:36;;;;;;;18.47;9.40;;;;;;;;;;5093895;28;20064;-58
2021/01/15 14:13:06;;;;;;;24.98;10.73;;;;;;;;;;5093903;28;20501;-58
2021/01/15 14:15:31;;;;;;;17.35;9.63;;;;;;;;;;5082989;28;20024;-56
2021/01/15 14:17:57;;;;;;;24.97;11.77;;;;;;;;;;5082498;28;20043;-56
2021/01/15 14:20:22;;;;;;;19.13;9.37;;;;;;;;;;5077676;28;20388;-57
2021/01/15 14:22:47;;;;;;;21.43;10.10;;;;;;;;;;5081850;28;20097;-58
2021/01/15 14:25:13;;;;;;;18.53;9.00;;;;;;;;;;5093858;28;20103;-58
2021/01/15 14:27:38;;;;;;;20.30;10.63;;;;;;;;;;5094483;28;20477;-56